Terminal Aerodrome Forecast
Issued by NWS

Home | Current Version | Previous Version | Text Only | Print | Product List | Glossary On
Versions: 1 2 3 4 5 6 7 8 9 10 11 12 13 14 15 16 17 18 19 20 21 22 23 24 25 26
000
FTAK31 PAFA 300540
TAFAOT
TAF
PAOT 300540Z 3006/3106 12021KT 6SM BLSN FEW100
     FM301500 12020KT 3SM BLSN BKN080 BKN180
     FM301800 12025G35KT 2SM BLSN SCT100 BKN180 PROB30 3021/3103
      1/2SM SN BLSN VV010=

USA.gov is the U.S. government's official web portal to all federal, state and local government web resources and services.